createdAt,value
2022-12-14T00:01:40.283Z,-1.44
2022-12-14T00:04:07.644Z,-1.25
2022-12-14T00:06:34.718Z,-1.33
2022-12-14T00:09:03.697Z,-1.28
2022-12-14T00:11:33.045Z,-1.14
2022-12-14T00:14:01.773Z,-1.00
2022-12-14T00:16:30.564Z,-1.11
2022-12-14T00:18:59.426Z,-1.00
2022-12-14T00:21:26.953Z,-0.99
2022-12-14T00:23:54.906Z,-1.06
2022-12-14T00:26:31.189Z,-1.05
2022-12-14T00:29:00.313Z,-0.91
2022-12-14T00:31:28.307Z,-0.86
2022-12-14T00:33:55.554Z,-1.06
2022-12-14T00:36:23.646Z,-0.96
2022-12-14T00:38:51.199Z,-0.91
2022-12-14T00:41:18.347Z,-0.82
2022-12-14T00:43:45.453Z,-0.71
2022-12-14T00:46:17.318Z,-0.71
2022-12-14T00:48:44.516Z,-0.85
2022-12-14T00:51:11.605Z,-0.86
2022-12-14T00:53:39.043Z,-0.90
2022-12-14T00:56:07.369Z,-0.80
2022-12-14T00:58:34.798Z,-0.88
2022-12-14T01:01:05.069Z,-0.80
2022-12-14T01:03:33.358Z,-0.73
2022-12-14T01:06:00.697Z,-0.79
2022-12-14T01:08:35.596Z,-0.78
2022-12-14T01:11:09.827Z,-0.64
2022-12-14T01:13:37.824Z,-0.54
2022-12-14T01:16:09.753Z,-0.70
2022-12-14T01:18:38.615Z,-0.57
2022-12-14T01:21:24.362Z,-0.42
2022-12-14T01:23:54.162Z,-0.22
2022-12-14T01:26:22.337Z,-0.28
2022-12-14T01:28:52.524Z,-0.48
2022-12-14T01:31:22.283Z,-0.51
2022-12-14T01:33:49.436Z,-0.34
2022-12-14T01:36:22.728Z,-0.46
2022-12-14T01:38:54.348Z,-0.48
2022-12-14T01:41:35.920Z,-1.01
2022-12-14T01:44:26.528Z,-0.51
2022-12-14T01:47:06.133Z,-0.24
2022-12-14T01:50:02.479Z,-0.27
2022-12-14T01:52:29.489Z,-0.21
2022-12-14T01:54:59.226Z,-0.21
2022-12-14T01:57:30.360Z,-0.42
2022-12-14T02:00:02.311Z,-0.56
2022-12-14T02:02:35.776Z,-0.65
2022-12-14T02:05:03.808Z,-0.68
2022-12-14T02:07:31.223Z,-0.66
2022-12-14T02:10:01.610Z,-0.67
2022-12-14T02:12:33.307Z,-0.64
2022-12-14T02:15:01.003Z,-0.50
2022-12-14T02:17:29.121Z,-0.36
2022-12-14T02:19:57.566Z,-0.21
2022-12-14T02:22:30.784Z,-0.06
2022-12-14T02:25:06.983Z,-0.11
2022-12-14T02:27:49.421Z,-0.20
2022-12-14T02:30:18.858Z,-0.38
2022-12-14T02:33:07.436Z,-0.35
2022-12-14T02:35:43.812Z,-0.50
2022-12-14T02:38:38.977Z,-0.37
2022-12-14T02:41:19.926Z,-0.29
2022-12-14T02:43:58.179Z,-0.13
2022-12-14T02:46:29.374Z,-0.10
2022-12-14T02:49:17.586Z,0.11
2022-12-14T02:52:07.065Z,0.08
2022-12-14T02:54:47.419Z,0.01
2022-12-14T02:57:25.666Z,-0.07
2022-12-14T02:59:56.773Z,-0.16
2022-12-14T03:02:25.001Z,-0.20
2022-12-14T03:04:52.622Z,-0.30
2022-12-14T03:07:34.671Z,-0.08
2022-12-14T03:10:18.142Z,0.47
2022-12-14T03:12:48.427Z,0.35
2022-12-14T03:15:18.590Z,0.14
2022-12-14T03:17:49.180Z,0.18
2022-12-14T03:20:21.136Z,0.20
2022-12-14T03:23:11.295Z,0.24
2022-12-14T03:25:48.659Z,0.26
2022-12-14T03:28:32.664Z,0.33
2022-12-14T03:31:06.113Z,0.31
2022-12-14T03:33:33.996Z,0.21
2022-12-14T03:36:09.235Z,0.12
2022-12-14T03:38:40.613Z,0.47
2022-12-14T03:41:07.891Z,0.74
2022-12-14T03:43:50.223Z,0.76
2022-12-14T03:46:28.353Z,0.58
2022-12-14T03:49:02.357Z,0.78
2022-12-14T03:51:41.389Z,0.92
2022-12-14T03:54:18.424Z,0.93
2022-12-14T03:57:24.217Z,0.73
2022-12-14T04:00:06.363Z,0.56
2022-12-14T04:02:56.467Z,0.53
2022-12-14T04:05:42.847Z,0.94
2022-12-14T04:08:17.967Z,0.85
2022-12-14T04:11:06.863Z,0.82
2022-12-14T04:13:57.479Z,0.71
2022-12-14T04:16:46.352Z,0.62
2022-12-14T04:19:38.853Z,1.16
2022-12-14T04:22:09.298Z,0.94
2022-12-14T04:25:04.745Z,0.99
2022-12-14T04:27:43.129Z,1.10
2022-12-14T04:30:11.932Z,1.32
2022-12-14T04:32:40.628Z,1.55
2022-12-14T04:35:22.922Z,1.68
2022-12-14T04:37:57.697Z,1.81
2022-12-14T04:40:32.382Z,1.79
2022-12-14T04:43:05.543Z,1.64
2022-12-14T04:45:36.474Z,1.37
2022-12-14T04:48:12.972Z,0.88
2022-12-14T04:50:44.809Z,1.10
2022-12-14T04:53:15.730Z,1.50
2022-12-14T04:56:15.026Z,1.25
2022-12-14T04:58:42.548Z,1.24
2022-12-14T05:01:28.152Z,0.93
2022-12-14T05:04:09.520Z,0.90
2022-12-14T05:06:45.381Z,1.52
2022-12-14T05:09:26.062Z,1.29
2022-12-14T05:12:02.415Z,1.26
2022-12-14T05:15:03.801Z,1.25
2022-12-14T05:17:31.018Z,1.83
2022-12-14T05:19:58.375Z,2.33
2022-12-14T05:22:25.416Z,2.24
2022-12-14T05:24:52.473Z,2.69
2022-12-14T05:27:19.846Z,2.57
2022-12-14T05:29:46.892Z,2.54
2022-12-14T05:32:14.077Z,2.23
2022-12-14T05:34:41.480Z,2.24
2022-12-14T05:37:13.020Z,2.11
2022-12-14T05:39:43.733Z,1.56
2022-12-14T05:42:10.794Z,1.35
2022-12-14T05:44:37.862Z,1.23
2022-12-14T05:47:05.283Z,1.17
2022-12-14T05:49:32.364Z,1.09
2022-12-14T05:51:59.873Z,1.14
2022-12-14T05:54:27.249Z,1.00
2022-12-14T05:56:54.328Z,1.74
2022-12-14T05:59:21.408Z,1.77
2022-12-14T06:01:49.697Z,2.30
2022-12-14T06:04:19.178Z,2.59
2022-12-14T06:06:46.491Z,2.33
2022-12-14T06:09:15.771Z,1.92
2022-12-14T06:11:44.352Z,2.01
2022-12-14T06:14:12.792Z,2.42
2022-12-14T06:16:41.509Z,2.51
2022-12-14T06:19:09.180Z,2.45
2022-12-14T06:21:40.994Z,2.42
2022-12-14T06:24:09.538Z,2.33
2022-12-14T06:26:37.446Z,2.27
2022-12-14T06:29:04.824Z,2.55
2022-12-14T06:31:32.995Z,2.56
2022-12-14T06:34:02.235Z,2.38
2022-12-14T06:36:40.334Z,2.39
2022-12-14T06:39:12.910Z,2.31
2022-12-14T06:41:40.737Z,2.34
2022-12-14T06:44:11.055Z,1.95
2022-12-14T06:46:38.867Z,2.02
2022-12-14T06:49:06.641Z,2.29
2022-12-14T06:51:39.403Z,2.18
2022-12-14T06:54:07.029Z,2.16
2022-12-14T06:56:35.355Z,2.15
2022-12-14T06:59:02.581Z,2.28
2022-12-14T07:01:30.950Z,1.97
2022-12-14T07:03:59.567Z,2.07
2022-12-14T07:06:28.690Z,2.03
2022-12-14T07:08:57.769Z,1.90
2022-12-14T07:11:26.308Z,1.90
2022-12-14T07:13:54.273Z,2.00
2022-12-14T07:16:26.437Z,1.79
2022-12-14T07:18:54.480Z,2.14
2022-12-14T07:21:22.613Z,2.22
2022-12-14T07:23:51.801Z,2.18
2022-12-14T07:26:27.518Z,2.10
2022-12-14T07:28:54.873Z,2.18
2022-12-14T07:31:24.656Z,2.47
2022-12-14T07:33:54.168Z,2.48
2022-12-14T07:36:22.839Z,2.24
2022-12-14T07:38:50.490Z,2.32
2022-12-14T07:41:22.786Z,2.20
2022-12-14T07:43:52.073Z,2.15
2022-12-14T07:46:21.591Z,2.24
2022-12-14T07:48:54.083Z,2.24
2022-12-14T07:51:23.461Z,1.95
2022-12-14T07:53:51.033Z,1.93
2022-12-14T07:56:21.637Z,1.87
2022-12-14T07:58:49.595Z,2.05
2022-12-14T08:01:31.098Z,2.23
2022-12-14T08:03:59.607Z,2.06
2022-12-14T08:06:28.889Z,2.08
2022-12-14T08:08:56.301Z,2.10
2022-12-14T08:11:24.563Z,1.74
2022-12-14T08:13:59.452Z,2.10
2022-12-14T08:16:27.680Z,2.20
2022-12-14T08:18:56.128Z,2.46
2022-12-14T08:21:24.218Z,2.06
2022-12-14T08:23:54.494Z,2.19
2022-12-14T08:26:21.959Z,1.97
2022-12-14T08:28:49.048Z,2.24
2022-12-14T08:31:18.690Z,2.18
2022-12-14T08:33:46.495Z,2.33
2022-12-14T08:36:19.327Z,2.44
2022-12-14T08:38:46.714Z,2.29
2022-12-14T08:41:16.132Z,2.57
2022-12-14T08:43:57.815Z,2.75
2022-12-14T08:46:26.688Z,2.91
2022-12-14T08:48:55.037Z,3.05
2022-12-14T08:51:23.874Z,2.96
2022-12-14T08:53:51.917Z,2.90
2022-12-14T08:56:21.159Z,2.89
2022-12-14T08:58:48.375Z,3.12
2022-12-14T09:01:20.956Z,2.92
2022-12-14T09:03:48.692Z,3.28
2022-12-14T09:06:22.179Z,3.03
2022-12-14T09:08:50.091Z,2.22
2022-12-14T09:11:19.381Z,2.40
2022-12-14T09:13:46.923Z,2.52
2022-12-14T09:16:17.256Z,2.29
2022-12-14T09:18:45.719Z,3.06
2022-12-14T09:21:13.328Z,2.77
2022-12-14T09:23:40.788Z,2.48
2022-12-14T09:26:13.915Z,2.40
2022-12-14T09:28:42.904Z,2.36
2022-12-14T09:31:12.041Z,3.00
2022-12-14T09:33:39.322Z,3.12
2022-12-14T09:36:13.086Z,3.02
2022-12-14T09:38:44.287Z,2.94
2022-12-14T09:41:33.197Z,3.26
2022-12-14T09:44:03.364Z,3.13
2022-12-14T09:46:48.803Z,3.23
2022-12-14T09:49:29.544Z,2.85
2022-12-14T09:52:00.723Z,2.69
2022-12-14T09:54:30.756Z,3.11
2022-12-14T09:57:01.500Z,3.37
2022-12-14T09:59:29.916Z,3.32
2022-12-14T10:02:30.780Z,3.34
2022-12-14T10:05:05.525Z,3.05
2022-12-14T10:07:38.196Z,3.02
2022-12-14T10:10:20.891Z,2.90
2022-12-14T10:13:03.406Z,2.86
2022-12-14T10:15:46.046Z,2.87
2022-12-14T10:18:58.325Z,2.99
2022-12-14T10:21:22.903Z,3.40
2022-12-14T10:24:14.699Z,3.57
2022-12-14T10:26:45.797Z,3.51
2022-12-14T10:29:37.325Z,3.29
2022-12-14T10:32:16.333Z,3.27
2022-12-14T10:34:46.432Z,3.17
2022-12-14T10:37:26.521Z,3.14
2022-12-14T10:40:14.597Z,3.08
2022-12-14T10:43:11.164Z,3.21
2022-12-14T10:45:50.456Z,3.31
2022-12-14T10:48:33.549Z,3.33
2022-12-14T10:51:19.750Z,3.33
2022-12-14T10:53:47.858Z,3.52
2022-12-14T10:56:20.993Z,3.05
2022-12-14T10:59:23.547Z,3.41
2022-12-14T11:01:59.650Z,4.01
2022-12-14T11:04:30.333Z,4.02
2022-12-14T11:07:09.145Z,3.72
2022-12-14T11:09:37.627Z,3.75
2022-12-14T11:12:13.536Z,4.21
2022-12-14T11:15:03.757Z,4.24
2022-12-14T11:17:38.378Z,4.31
2022-12-14T11:20:08.735Z,4.24
2022-12-14T11:22:47.369Z,4.49
2022-12-14T11:25:40.088Z,4.30
2022-12-14T11:28:16.650Z,4.28
2022-12-14T11:30:57.777Z,4.30
2022-12-14T11:33:29.186Z,4.31
2022-12-14T11:35:56.536Z,4.42
2022-12-14T11:38:24.226Z,4.48
2022-12-14T11:40:51.419Z,4.21
2022-12-14T11:43:38.770Z,4.40
2022-12-14T11:46:06.544Z,4.63
2022-12-14T11:48:36.860Z,4.44
2022-12-14T11:51:12.694Z,4.81
2022-12-14T11:53:41.008Z,4.46
2022-12-14T11:56:13.050Z,4.21
2022-12-14T11:58:48.610Z,4.23
2022-12-14T12:01:18.968Z,4.00
2022-12-14T12:03:49.080Z,3.88
2022-12-14T12:06:22.810Z,3.77
2022-12-14T12:08:56.130Z,3.79
2022-12-14T12:11:27.103Z,3.63
2022-12-14T12:14:21.058Z,3.32
2022-12-14T12:16:48.261Z,3.43
2022-12-14T12:19:23.334Z,3.44
2022-12-14T12:21:51.593Z,3.52
2022-12-14T12:24:27.433Z,3.58
2022-12-14T12:27:02.613Z,3.37
2022-12-14T12:29:38.109Z,3.51
2022-12-14T12:32:15.933Z,3.64
2022-12-14T12:34:48.008Z,4.27
2022-12-14T12:37:26.190Z,4.14
2022-12-14T12:39:58.888Z,3.98
2022-12-14T12:42:31.968Z,3.83
2022-12-14T12:45:11.419Z,3.52
2022-12-14T12:47:47.780Z,3.88
2022-12-14T12:50:17.902Z,3.82
2022-12-14T12:53:04.580Z,4.12
2022-12-14T12:55:38.454Z,4.12
2022-12-14T12:58:09.841Z,4.01
2022-12-14T13:00:37.984Z,4.00
2022-12-14T13:03:22.348Z,3.99
2022-12-14T13:05:51.297Z,3.53
2022-12-14T13:08:34.204Z,3.20
2022-12-14T13:11:28.334Z,3.25
2022-12-14T13:14:17.933Z,3.20
2022-12-14T13:16:45.518Z,3.41
2022-12-14T13:22:21.751Z,3.45
2022-12-14T13:24:57.045Z,3.40
2022-12-14T13:27:44.987Z,3.34
2022-12-14T13:30:31.010Z,3.45
2022-12-14T13:33:20.098Z,3.45
2022-12-14T13:36:20.879Z,3.34
2022-12-14T13:39:20.240Z,3.40
2022-12-14T13:41:56.382Z,3.57
2022-12-14T13:44:37.220Z,3.85
2022-12-14T13:47:15.580Z,3.63
2022-12-14T13:50:26.359Z,3.44
2022-12-14T13:52:42.425Z,3.24
2022-12-14T13:55:25.237Z,3.34
2022-12-14T13:57:53.359Z,3.42
2022-12-14T14:00:45.994Z,3.56
2022-12-14T14:03:35.376Z,3.65
2022-12-14T14:06:09.440Z,3.67
2022-12-14T14:08:42.386Z,3.42
2022-12-14T14:14:17.630Z,3.68
2022-12-14T14:16:47.559Z,3.42
2022-12-14T14:19:23.425Z,3.43
2022-12-14T14:22:22.337Z,3.54
2022-12-14T14:25:12.568Z,3.36
2022-12-14T14:27:42.043Z,3.47
2022-12-14T14:30:42.259Z,3.44
2022-12-14T14:33:46.449Z,3.23
2022-12-14T14:36:21.004Z,3.63
2022-12-14T14:38:49.002Z,3.48
2022-12-14T14:41:40.720Z,3.62
2022-12-14T14:44:36.195Z,3.62
2022-12-14T14:47:07.408Z,4.17
2022-12-14T14:49:39.053Z,4.40
2022-12-14T14:52:37.511Z,4.17
2022-12-14T14:55:52.814Z,4.22
2022-12-14T14:58:28.307Z,3.67
2022-12-14T15:00:58.368Z,3.46
2022-12-14T15:03:39.115Z,3.48
2022-12-14T15:06:12.426Z,3.32
2022-12-14T15:08:41.106Z,3.82
2022-12-14T15:11:15.940Z,4.03
2022-12-14T15:13:52.534Z,3.71
2022-12-14T15:16:27.607Z,3.52
2022-12-14T15:18:55.390Z,3.25
2022-12-14T15:21:22.559Z,3.42
2022-12-14T15:23:52.715Z,3.38
2022-12-14T15:26:26.097Z,3.64
2022-12-14T15:28:55.566Z,4.07
2022-12-14T15:31:31.949Z,4.30
2022-12-14T15:34:00.246Z,4.07
2022-12-14T15:36:30.891Z,3.77
2022-12-14T15:38:58.713Z,3.76
2022-12-14T15:41:31.613Z,3.96
2022-12-14T15:44:00.441Z,3.76
2022-12-14T15:46:34.835Z,3.63
2022-12-14T15:49:05.146Z,3.65
2022-12-14T15:51:42.763Z,3.60
2022-12-14T15:54:19.961Z,3.52
2022-12-14T15:56:49.177Z,3.31
2022-12-14T15:59:17.802Z,3.76
2022-12-14T16:01:54.417Z,3.79
2022-12-14T16:04:25.927Z,3.41
2022-12-14T16:06:57.257Z,3.62
2022-12-14T16:09:35.281Z,3.28
2022-12-14T16:12:06.792Z,3.21
2022-12-14T16:14:44.100Z,3.13
2022-12-14T16:17:35.092Z,3.01
2022-12-14T16:20:23.898Z,2.85
2022-12-14T16:23:05.264Z,2.70
2022-12-14T16:25:36.540Z,2.39
2022-12-14T16:28:26.023Z,2.45
2022-12-14T16:31:08.349Z,2.64
2022-12-14T16:33:37.796Z,2.40
2022-12-14T16:36:10.444Z,2.39
2022-12-14T16:38:55.157Z,2.44
2022-12-14T16:41:40.118Z,2.40
2022-12-14T16:44:08.371Z,2.32
2022-12-14T16:46:36.414Z,2.30
2022-12-14T16:49:33.060Z,2.30
2022-12-14T16:52:09.844Z,2.31
2022-12-14T16:54:38.203Z,2.58
2022-12-14T16:57:22.810Z,2.36
2022-12-14T17:00:01.263Z,2.47
2022-12-14T17:02:32.154Z,2.53
2022-12-14T17:05:02.345Z,2.50
2022-12-14T17:07:31.588Z,2.53
2022-12-14T17:09:59.067Z,2.67
2022-12-14T17:12:26.595Z,2.82
2022-12-14T17:14:54.101Z,2.42
2022-12-14T17:17:33.423Z,1.96
2022-12-14T17:20:01.742Z,2.20
2022-12-14T17:22:30.993Z,2.35
2022-12-14T17:24:59.396Z,2.59
2022-12-14T17:27:29.819Z,2.68
2022-12-14T17:29:57.484Z,2.25
2022-12-14T17:32:29.272Z,2.55
2022-12-14T17:34:57.096Z,2.49
2022-12-14T17:37:26.864Z,2.17
2022-12-14T17:39:57.133Z,1.78
2022-12-14T17:42:24.274Z,1.79
2022-12-14T17:44:54.769Z,1.58
2022-12-14T17:47:22.735Z,1.77
2022-12-14T17:49:50.051Z,1.69
2022-12-14T17:52:24.403Z,1.83
2022-12-14T17:54:51.773Z,2.01
2022-12-14T17:57:21.590Z,2.09
2022-12-14T17:59:49.101Z,2.42
2022-12-14T18:02:30.545Z,2.42
2022-12-14T18:04:58.070Z,2.51
2022-12-14T18:07:25.157Z,2.42
2022-12-14T18:09:54.335Z,2.32
2022-12-14T18:12:23.914Z,2.42
2022-12-14T18:15:16.822Z,2.37
2022-12-14T18:18:04.639Z,2.39
2022-12-14T18:20:32.019Z,2.42
2022-12-14T18:22:59.383Z,2.41
2022-12-14T18:25:38.322Z,2.58
2022-12-14T18:28:06.686Z,2.65
2022-12-14T18:30:40.722Z,2.61
2022-12-14T18:33:15.360Z,2.82
2022-12-14T18:35:43.582Z,2.94
2022-12-14T18:38:12.425Z,3.04
2022-12-14T18:40:40.498Z,3.07
2022-12-14T18:43:07.675Z,2.84
2022-12-14T18:45:35.313Z,2.99
2022-12-14T18:48:02.446Z,3.01
2022-12-14T18:50:29.855Z,3.02
2022-12-14T18:52:57.327Z,2.96
2022-12-14T18:55:26.609Z,2.77
2022-12-14T18:57:56.554Z,3.19
2022-12-14T19:00:26.302Z,3.11
2022-12-14T19:02:57.167Z,3.12
2022-12-14T19:05:26.391Z,2.91
2022-12-14T19:07:54.503Z,2.91
2022-12-14T19:10:24.674Z,3.19
2022-12-14T19:12:52.135Z,3.12
2022-12-14T19:15:23.298Z,2.95
2022-12-14T19:17:50.601Z,2.97
2022-12-14T19:20:18.846Z,2.81
2022-12-14T19:22:47.123Z,2.86
2022-12-14T19:25:15.101Z,2.63
2022-12-14T19:28:25.637Z,2.65
2022-12-14T19:30:31.244Z,2.35
2022-12-14T19:32:58.673Z,2.72
2022-12-14T19:35:26.383Z,2.87
2022-12-14T19:37:53.598Z,2.73
2022-12-14T19:40:21.361Z,2.56
2022-12-14T19:42:48.542Z,2.57
2022-12-14T19:45:15.825Z,2.73
2022-12-14T19:47:44.144Z,2.77
2022-12-14T19:50:13.433Z,2.84
2022-12-14T19:52:40.559Z,2.82
2022-12-14T19:55:08.603Z,2.78
2022-12-14T19:57:35.845Z,2.63
2022-12-14T20:00:03.689Z,2.90
2022-12-14T20:02:37.732Z,2.98
2022-12-14T20:05:05.666Z,2.96
2022-12-14T20:07:32.847Z,2.82
2022-12-14T20:10:00.013Z,2.50
2022-12-14T20:12:31.874Z,2.97
2022-12-14T20:14:59.208Z,2.79
2022-12-14T20:17:26.574Z,2.47
2022-12-14T20:19:53.920Z,2.34
2022-12-14T20:22:21.019Z,2.60
2022-12-14T20:24:48.694Z,2.61
2022-12-14T20:27:16.437Z,2.56
2022-12-14T20:29:43.547Z,2.65
2022-12-14T20:32:11.220Z,2.88
2022-12-14T20:34:39.206Z,2.81
2022-12-14T20:37:08.059Z,2.70
2022-12-14T20:39:35.159Z,2.62
2022-12-14T20:42:02.577Z,2.44
2022-12-14T20:44:29.799Z,2.57
2022-12-14T20:46:57.038Z,2.47
2022-12-14T20:49:30.145Z,2.54
2022-12-14T20:51:57.530Z,2.53
2022-12-14T20:54:25.539Z,2.44
2022-12-14T20:56:52.631Z,2.27
2022-12-14T20:59:19.699Z,2.37
2022-12-14T21:01:53.476Z,2.49
2022-12-14T21:04:30.638Z,2.71
2022-12-14T21:06:58.030Z,2.67
2022-12-14T21:09:25.081Z,2.59
2022-12-14T21:12:10.486Z,2.84
2022-12-14T21:14:42.404Z,2.85
2022-12-14T21:17:10.179Z,2.80
2022-12-14T21:19:37.814Z,2.95
2022-12-14T21:22:06.491Z,2.76
2022-12-14T21:27:26.318Z,2.63
2022-12-14T21:29:53.917Z,2.81
2022-12-14T21:32:21.843Z,2.84
2022-12-14T21:34:49.430Z,2.82
2022-12-14T21:37:16.551Z,2.64
2022-12-14T21:39:49.012Z,2.53
2022-12-14T21:42:20.742Z,2.37
2022-12-14T21:44:49.482Z,2.44
2022-12-14T21:47:25.837Z,2.49
2022-12-14T21:49:53.604Z,2.48
2022-12-14T21:52:23.661Z,2.68
2022-12-14T21:54:50.769Z,2.67
2022-12-14T21:57:39.684Z,2.68
2022-12-14T22:00:08.738Z,2.62
2022-12-14T22:02:39.725Z,2.73
2022-12-14T22:05:07.558Z,2.74
2022-12-14T22:07:34.811Z,2.78
2022-12-14T22:10:02.060Z,2.65
2022-12-14T22:12:29.681Z,2.47
2022-12-14T22:14:56.763Z,2.40
2022-12-14T22:17:23.875Z,2.40
2022-12-14T22:19:52.155Z,2.43
2022-12-14T22:22:19.245Z,2.44
2022-12-14T22:24:48.790Z,2.29
2022-12-14T22:27:16.317Z,2.42
2022-12-14T22:29:43.337Z,2.43
2022-12-14T22:32:14.649Z,2.43
2022-12-14T22:34:42.353Z,2.55
2022-12-14T22:37:09.442Z,2.66
2022-12-14T22:39:36.512Z,2.57
2022-12-14T22:42:04.056Z,2.48
2022-12-14T22:44:31.140Z,2.63
2022-12-14T22:46:58.221Z,2.68
2022-12-14T22:49:25.552Z,2.57
2022-12-14T22:51:52.648Z,2.54
2022-12-14T22:54:25.283Z,2.48
2022-12-14T22:57:02.353Z,2.51
2022-12-14T22:59:45.930Z,2.63
2022-12-14T23:02:13.613Z,2.51
2022-12-14T23:04:40.964Z,2.42
2022-12-14T23:07:08.065Z,2.28
2022-12-14T23:09:54.336Z,2.34
2022-12-14T23:12:40.218Z,2.48
2022-12-14T23:15:26.227Z,2.57
2022-12-14T23:18:20.389Z,2.46
2022-12-14T23:21:08.420Z,2.54
2022-12-14T23:23:56.912Z,2.50
2022-12-14T23:26:42.723Z,2.37
2022-12-14T23:29:28.673Z,2.42
2022-12-14T23:32:17.588Z,2.47
2022-12-14T23:35:02.922Z,2.43
2022-12-14T23:37:48.640Z,2.54
2022-12-14T23:40:34.497Z,2.43
2022-12-14T23:43:31.482Z,2.31
2022-12-14T23:46:17.465Z,2.40
2022-12-14T23:49:03.810Z,2.33
2022-12-14T23:51:49.678Z,2.27
2022-12-14T23:54:35.635Z,1.82
2022-12-14T23:57:25.868Z,1.91
